sensor_id;sensor_type;location;lat;lon;timestamp;pressure;altitude;pressure_sealevel;temperature;humidity
62708;BME280;48769;51.624;5.886;2022-10-31T00:00:58;101909.84;;;16.19;100.00
62708;BME280;48769;51.624;5.886;2022-10-31T00:03:24;101905.91;;;16.10;100.00
62708;BME280;48769;51.624;5.886;2022-10-31T00:05:49;101906.25;;;16.04;100.00
62708;BME280;48769;51.624;5.886;2022-10-31T00:08:16;101912.63;;;16.01;100.00
62708;BME280;48769;51.624;5.886;2022-10-31T00:10:43;101908.94;;;15.88;100.00
62708;BME280;48769;51.624;5.886;2022-10-31T00:13:09;101904.13;;;15.95;100.00
62708;BME280;48769;51.624;5.886;2022-10-31T00:15:36;101902.56;;;15.91;100.00
62708;BME280;48769;51.624;5.886;2022-10-31T00:18:03;101906.44;;;15.85;100.00
62708;BME280;48769;51.624;5.886;2022-10-31T00:20:29;101911.09;;;15.81;100.00
62708;BME280;48769;51.624;5.886;2022-10-31T00:22:58;101910.56;;;15.75;100.00
62708;BME280;48769;51.624;5.886;2022-10-31T00:25:24;101909.78;;;15.73;100.00
62708;BME280;48769;51.624;5.886;2022-10-31T00:27:49;101908.25;;;15.69;100.00
62708;BME280;48769;51.624;5.886;2022-10-31T00:30:15;101912.00;;;15.64;100.00
62708;BME280;48769;51.624;5.886;2022-10-31T00:32:40;101912.28;;;15.60;100.00
62708;BME280;48769;51.624;5.886;2022-10-31T00:35:05;101911.56;;;15.56;100.00
62708;BME280;48769;51.624;5.886;2022-10-31T00:37:31;101905.16;;;15.60;100.00
62708;BME280;48769;51.624;5.886;2022-10-31T00:39:56;101897.84;;;15.64;100.00
62708;BME280;48769;51.624;5.886;2022-10-31T00:42:22;101903.50;;;15.58;100.00
62708;BME280;48769;51.624;5.886;2022-10-31T00:44:47;101903.00;;;15.51;100.00
62708;BME280;48769;51.624;5.886;2022-10-31T00:47:12;101898.78;;;15.47;100.00
62708;BME280;48769;51.624;5.886;2022-10-31T00:49:37;101897.66;;;15.51;100.00
62708;BME280;48769;51.624;5.886;2022-10-31T00:52:03;101899.53;;;15.49;100.00
62708;BME280;48769;51.624;5.886;2022-10-31T00:54:28;101887.00;;;15.51;100.00
62708;BME280;48769;51.624;5.886;2022-10-31T00:56:56;101895.59;;;15.56;100.00
62708;BME280;48769;51.624;5.886;2022-10-31T00:59:21;101899.88;;;15.59;100.00
62708;BME280;48769;51.624;5.886;2022-10-31T01:01:46;101894.56;;;15.59;100.00
62708;BME280;48769;51.624;5.886;2022-10-31T01:04:12;101888.53;;;15.55;100.00
62708;BME280;48769;51.624;5.886;2022-10-31T01:06:37;101890.25;;;15.56;100.00
62708;BME280;48769;51.624;5.886;2022-10-31T01:09:02;101894.81;;;15.54;100.00
62708;BME280;48769;51.624;5.886;2022-10-31T01:11:28;101892.66;;;15.45;100.00
62708;BME280;48769;51.624;5.886;2022-10-31T01:13:53;101897.53;;;15.37;100.00
62708;BME280;48769;51.624;5.886;2022-10-31T01:16:23;101888.00;;;15.33;100.00
62708;BME280;48769;51.624;5.886;2022-10-31T01:18:48;101890.59;;;15.34;100.00
62708;BME280;48769;51.624;5.886;2022-10-31T01:21:17;101892.16;;;15.38;100.00
62708;BME280;48769;51.624;5.886;2022-10-31T01:23:43;101898.16;;;15.42;100.00
62708;BME280;48769;51.624;5.886;2022-10-31T01:26:15;101899.13;;;15.41;100.00
62708;BME280;48769;51.624;5.886;2022-10-31T01:28:50;101910.31;;;15.30;100.00
62708;BME280;48769;51.624;5.886;2022-10-31T01:31:17;101914.28;;;15.23;100.00
62708;BME280;48769;51.624;5.886;2022-10-31T01:33:43;101902.59;;;15.26;100.00
62708;BME280;48769;51.624;5.886;2022-10-31T01:38:44;101883.03;;;15.27;100.00
62708;BME280;48769;51.624;5.886;2022-10-31T01:41:11;101864.38;;;15.27;100.00
62708;BME280;48769;51.624;5.886;2022-10-31T01:43:52;101865.50;;;15.23;100.00
62708;BME280;48769;51.624;5.886;2022-10-31T01:46:22;101871.00;;;15.19;100.00
62708;BME280;48769;51.624;5.886;2022-10-31T01:48:50;101876.66;;;15.13;100.00
62708;BME280;48769;51.624;5.886;2022-10-31T01:51:17;101884.38;;;15.02;100.00
62708;BME280;48769;51.624;5.886;2022-10-31T01:53:44;101879.38;;;14.96;100.00
62708;BME280;48769;51.624;5.886;2022-10-31T01:56:12;101884.16;;;14.89;100.00
62708;BME280;48769;51.624;5.886;2022-10-31T01:58:39;101883.47;;;14.86;100.00
62708;BME280;48769;51.624;5.886;2022-10-31T02:01:05;101885.00;;;14.90;100.00
62708;BME280;48769;51.624;5.886;2022-10-31T02:03:30;101885.69;;;14.93;100.00
62708;BME280;48769;51.624;5.886;2022-10-31T02:05:57;101886.72;;;14.91;100.00
62708;BME280;48769;51.624;5.886;2022-10-31T02:08:26;101889.97;;;14.80;100.00
62708;BME280;48769;51.624;5.886;2022-10-31T02:10:53;101893.03;;;14.72;100.00
62708;BME280;48769;51.624;5.886;2022-10-31T02:13:19;101896.75;;;14.68;100.00
62708;BME280;48769;51.624;5.886;2022-10-31T02:15:48;101902.41;;;14.62;100.00
62708;BME280;48769;51.624;5.886;2022-10-31T02:18:14;101903.50;;;14.58;100.00
62708;BME280;48769;51.624;5.886;2022-10-31T02:20:55;101898.97;;;14.60;100.00
62708;BME280;48769;51.624;5.886;2022-10-31T02:26:35;101899.38;;;14.70;100.00
62708;BME280;48769;51.624;5.886;2022-10-31T02:31:35;101891.13;;;14.75;100.00
62708;BME280;48769;51.624;5.886;2022-10-31T02:34:35;101885.97;;;14.71;100.00
62708;BME280;48769;51.624;5.886;2022-10-31T02:37:25;101888.03;;;14.66;100.00
62708;BME280;48769;51.624;5.886;2022-10-31T02:40:04;101886.63;;;14.59;100.00
62708;BME280;48769;51.624;5.886;2022-10-31T02:42:34;101882.38;;;14.55;100.00
62708;BME280;48769;51.624;5.886;2022-10-31T02:45:08;101886.94;;;14.53;100.00
62708;BME280;48769;51.624;5.886;2022-10-31T02:47:38;101887.81;;;14.54;100.00
62708;BME280;48769;51.624;5.886;2022-10-31T02:50:13;101887.97;;;14.49;100.00
62708;BME280;48769;51.624;5.886;2022-10-31T02:52:39;101886.59;;;14.42;100.00
62708;BME280;48769;51.624;5.886;2022-10-31T02:55:39;101881.50;;;14.37;100.00
62708;BME280;48769;51.624;5.886;2022-10-31T02:58:19;101888.00;;;14.32;100.00
62708;BME280;48769;51.624;5.886;2022-10-31T03:06:37;101883.44;;;14.16;100.00
62708;BME280;48769;51.624;5.886;2022-10-31T03:09:26;101881.56;;;14.18;100.00
62708;BME280;48769;51.624;5.886;2022-10-31T03:14:46;101880.31;;;14.08;100.00
62708;BME280;48769;51.624;5.886;2022-10-31T03:17:37;101883.19;;;14.03;100.00
62708;BME280;48769;51.624;5.886;2022-10-31T03:20:06;101880.78;;;13.99;100.00
62708;BME280;48769;51.624;5.886;2022-10-31T03:22:35;101876.47;;;13.96;100.00
62708;BME280;48769;51.624;5.886;2022-10-31T03:25:04;101882.00;;;13.92;100.00
62708;BME280;48769;51.624;5.886;2022-10-31T03:27:32;101873.25;;;13.90;100.00
62708;BME280;48769;51.624;5.886;2022-10-31T03:30:02;101885.66;;;13.89;100.00
62708;BME280;48769;51.624;5.886;2022-10-31T03:32:36;101876.84;;;13.89;100.00
62708;BME280;48769;51.624;5.886;2022-10-31T03:35:05;101872.94;;;13.96;100.00
62708;BME280;48769;51.624;5.886;2022-10-31T03:37:33;101880.63;;;14.02;100.00
62708;BME280;48769;51.624;5.886;2022-10-31T03:40:00;101873.28;;;14.07;100.00
62708;BME280;48769;51.624;5.886;2022-10-31T03:42:31;101876.56;;;14.12;100.00
62708;BME280;48769;51.624;5.886;2022-10-31T03:45:05;101870.25;;;14.15;100.00
62708;BME280;48769;51.624;5.886;2022-10-31T03:47:34;101870.00;;;14.19;100.00
62708;BME280;48769;51.624;5.886;2022-10-31T03:50:02;101865.47;;;14.21;100.00
62708;BME280;48769;51.624;5.886;2022-10-31T03:55:55;101885.03;;;14.20;100.00
62708;BME280;48769;51.624;5.886;2022-10-31T03:58:20;101883.44;;;14.16;100.00
62708;BME280;48769;51.624;5.886;2022-10-31T04:00:48;101884.53;;;14.12;100.00
62708;BME280;48769;51.624;5.886;2022-10-31T04:03:20;101883.03;;;14.07;100.00
62708;BME280;48769;51.624;5.886;2022-10-31T04:05:48;101883.03;;;14.07;100.00
62708;BME280;48769;51.624;5.886;2022-10-31T04:08:17;101883.97;;;14.06;100.00
62708;BME280;48769;51.624;5.886;2022-10-31T04:10:47;101887.72;;;14.01;100.00
62708;BME280;48769;51.624;5.886;2022-10-31T04:13:16;101889.69;;;13.98;100.00
62708;BME280;48769;51.624;5.886;2022-10-31T04:15:44;101880.91;;;13.96;100.00
62708;BME280;48769;51.624;5.886;2022-10-31T04:18:10;101882.94;;;13.91;100.00
62708;BME280;48769;51.624;5.886;2022-10-31T04:20:37;101877.84;;;13.86;100.00
62708;BME280;48769;51.624;5.886;2022-10-31T04:23:04;101878.84;;;13.84;100.00
62708;BME280;48769;51.624;5.886;2022-10-31T04:25:29;101877.06;;;13.84;100.00
62708;BME280;48769;51.624;5.886;2022-10-31T04:27:55;101876.03;;;13.87;100.00
62708;BME280;48769;51.624;5.886;2022-10-31T04:30:20;101880.34;;;13.89;100.00
62708;BME280;48769;51.624;5.886;2022-10-31T04:32:45;101876.75;;;13.90;100.00
62708;BME280;48769;51.624;5.886;2022-10-31T04:35:11;101873.25;;;13.90;100.00
62708;BME280;48769;51.624;5.886;2022-10-31T04:37:36;101875.75;;;13.93;100.00
62708;BME280;48769;51.624;5.886;2022-10-31T04:40:02;101879.22;;;13.95;100.00
62708;BME280;48769;51.624;5.886;2022-10-31T04:42:31;101879.06;;;13.98;100.00
62708;BME280;48769;51.624;5.886;2022-10-31T04:44:56;101877.47;;;13.94;100.00
62708;BME280;48769;51.624;5.886;2022-10-31T04:47:22;101876.75;;;13.90;100.00
62708;BME280;48769;51.624;5.886;2022-10-31T04:49:47;101872.78;;;13.82;100.00
62708;BME280;48769;51.624;5.886;2022-10-31T04:52:13;101874.78;;;13.76;100.00
62708;BME280;48769;51.624;5.886;2022-10-31T04:54:39;101867.59;;;13.78;100.00
62708;BME280;48769;51.624;5.886;2022-10-31T04:57:04;101866.56;;;13.81;100.00
62708;BME280;48769;51.624;5.886;2022-10-31T04:59:29;101870.88;;;13.84;100.00
62708;BME280;48769;51.624;5.886;2022-10-31T05:01:55;101865.44;;;13.87;100.00
62708;BME280;48769;51.624;5.886;2022-10-31T05:04:20;101860.75;;;13.92;100.00
62708;BME280;48769;51.624;5.886;2022-10-31T05:06:46;101855.75;;;14.03;100.00
62708;BME280;48769;51.624;5.886;2022-10-31T05:09:11;101860.91;;;14.06;100.00
62708;BME280;48769;51.624;5.886;2022-10-31T05:11:36;101853.59;;;14.11;100.00
62708;BME280;48769;51.624;5.886;2022-10-31T05:14:02;101851.69;;;14.13;100.00
62708;BME280;48769;51.624;5.886;2022-10-31T05:16:27;101852.66;;;14.12;100.00
62708;BME280;48769;51.624;5.886;2022-10-31T05:18:53;101859.06;;;14.08;100.00
62708;BME280;48769;51.624;5.886;2022-10-31T05:21:18;101865.94;;;13.95;100.00
62708;BME280;48769;51.624;5.886;2022-10-31T05:23:43;101859.19;;;13.88;100.00
62708;BME280;48769;51.624;5.886;2022-10-31T05:26:09;101862.00;;;13.85;100.00
62708;BME280;48769;51.624;5.886;2022-10-31T05:28:34;101854.94;;;13.84;100.00
62708;BME280;48769;51.624;5.886;2022-10-31T05:30:59;101849.78;;;13.80;100.00
62708;BME280;48769;51.624;5.886;2022-10-31T05:33:25;101854.47;;;13.75;100.00
62708;BME280;48769;51.624;5.886;2022-10-31T05:35:50;101853.69;;;13.73;100.00
62708;BME280;48769;51.624;5.886;2022-10-31T05:38:15;101840.56;;;13.70;100.00
62708;BME280;48769;51.624;5.886;2022-10-31T05:40:40;101843.22;;;13.70;100.00
62708;BME280;48769;51.624;5.886;2022-10-31T05:43:06;101847.75;;;13.68;100.00
62708;BME280;48769;51.624;5.886;2022-10-31T05:45:31;101846.00;;;13.67;100.00
62708;BME280;48769;51.624;5.886;2022-10-31T05:47:58;101846.94;;;13.66;100.00
62708;BME280;48769;51.624;5.886;2022-10-31T05:50:25;101846.44;;;13.58;100.00
62708;BME280;48769;51.624;5.886;2022-10-31T05:52:56;101840.53;;;13.53;100.00
62708;BME280;48769;51.624;5.886;2022-10-31T05:55:22;101844.41;;;13.46;100.00
62708;BME280;48769;51.624;5.886;2022-10-31T05:57:47;101832.19;;;13.42;100.00
62708;BME280;48769;51.624;5.886;2022-10-31T06:00:12;101833.78;;;13.46;100.00
62708;BME280;48769;51.624;5.886;2022-10-31T06:02:38;101834.50;;;13.49;100.00
62708;BME280;48769;51.624;5.886;2022-10-31T06:05:03;101826.44;;;13.51;100.00
62708;BME280;48769;51.624;5.886;2022-10-31T06:07:33;101830.84;;;13.52;100.00
62708;BME280;48769;51.624;5.886;2022-10-31T06:09:59;101837.16;;;13.49;100.00
62708;BME280;48769;51.624;5.886;2022-10-31T06:12:24;101841.66;;;13.47;100.00
62708;BME280;48769;51.624;5.886;2022-10-31T06:14:50;101840.66;;;13.50;100.00
62708;BME280;48769;51.624;5.886;2022-10-31T06:17:15;101835.50;;;13.47;100.00
62708;BME280;48769;51.624;5.886;2022-10-31T06:19:40;101837.34;;;13.45;100.00
62708;BME280;48769;51.624;5.886;2022-10-31T06:22:06;101842.91;;;13.40;100.00
62708;BME280;48769;51.624;5.886;2022-10-31T06:24:31;101848.25;;;13.39;100.00
62708;BME280;48769;51.624;5.886;2022-10-31T06:26:56;101843.91;;;13.38;100.00
62708;BME280;48769;51.624;5.886;2022-10-31T06:29:22;101838.66;;;13.36;100.00
62708;BME280;48769;51.624;5.886;2022-10-31T06:31:47;101835.13;;;13.36;100.00
62708;BME280;48769;51.624;5.886;2022-10-31T06:34:12;101837.78;;;13.36;100.00
62708;BME280;48769;51.624;5.886;2022-10-31T06:36:37;101836.94;;;13.35;100.00
62708;BME280;48769;51.624;5.886;2022-10-31T06:39:03;101837.78;;;13.36;100.00
62708;BME280;48769;51.624;5.886;2022-10-31T06:41:28;101830.75;;;13.35;100.00
62708;BME280;48769;51.624;5.886;2022-10-31T06:43:54;101827.16;;;13.36;100.00
62708;BME280;48769;51.624;5.886;2022-10-31T06:46:19;101824.50;;;13.36;100.00
62708;BME280;48769;51.624;5.886;2022-10-31T06:48:44;101824.50;;;13.36;100.00
62708;BME280;48769;51.624;5.886;2022-10-31T06:51:09;101829.69;;;13.39;100.00
62708;BME280;48769;51.624;5.886;2022-10-31T06:53:35;101838.59;;;13.38;100.00
62708;BME280;48769;51.624;5.886;2022-10-31T06:56:00;101834.06;;;13.40;100.00
62708;BME280;48769;51.624;5.886;2022-10-31T06:58:25;101839.28;;;13.41;100.00
62708;BME280;48769;51.624;5.886;2022-10-31T07:00:51;101855.16;;;13.43;100.00
62708;BME280;48769;51.624;5.886;2022-10-31T07:03:16;101856.72;;;13.47;100.00
62708;BME280;48769;51.624;5.886;2022-10-31T07:05:42;101852.09;;;13.52;100.00
62708;BME280;48769;51.624;5.886;2022-10-31T07:08:10;101854.56;;;13.55;100.00
62708;BME280;48769;51.624;5.886;2022-10-31T07:10:36;101853.41;;;13.61;100.00
62708;BME280;48769;51.624;5.886;2022-10-31T07:13:04;101855.88;;;13.65;100.00
62708;BME280;48769;51.624;5.886;2022-10-31T07:15:35;101852.88;;;13.71;100.00
62708;BME280;48769;51.624;5.886;2022-10-31T07:18:05;101849.94;;;13.77;100.00
62708;BME280;48769;51.624;5.886;2022-10-31T07:20:31;101838.25;;;13.82;100.00
62708;BME280;48769;51.624;5.886;2022-10-31T07:22:57;101845.31;;;13.81;100.00
62708;BME280;48769;51.624;5.886;2022-10-31T07:25:23;101840.59;;;13.88;100.00
62708;BME280;48769;51.624;5.886;2022-10-31T07:27:49;101848.25;;;13.94;100.00
62708;BME280;48769;51.624;5.886;2022-10-31T07:30:15;101839.97;;;14.00;100.00
62708;BME280;48769;51.624;5.886;2022-10-31T07:32:45;101844.97;;;14.06;100.00
62708;BME280;48769;51.624;5.886;2022-10-31T07:35:12;101851.84;;;14.10;100.00
62708;BME280;48769;51.624;5.886;2022-10-31T07:37:38;101843.56;;;14.16;100.00
62708;BME280;48769;51.624;5.886;2022-10-31T07:40:05;101854.69;;;14.24;100.00
62708;BME280;48769;51.624;5.886;2022-10-31T07:42:38;101854.22;;;14.34;100.00
62708;BME280;48769;51.624;5.886;2022-10-31T07:45:05;101857.50;;;14.39;100.00
62708;BME280;48769;51.624;5.886;2022-10-31T07:47:41;101854.31;;;14.49;100.00
62708;BME280;48769;51.624;5.886;2022-10-31T07:50:08;101852.81;;;14.61;100.00
62708;BME280;48769;51.624;5.886;2022-10-31T07:52:34;101852.50;;;14.67;100.00
62708;BME280;48769;51.624;5.886;2022-10-31T07:54:59;101859.06;;;14.78;100.00
62708;BME280;48769;51.624;5.886;2022-10-31T07:57:25;101864.22;;;15.46;100.00
62708;BME280;48769;51.624;5.886;2022-10-31T07:59:50;101862.09;;;16.44;100.00
62708;BME280;48769;51.624;5.886;2022-10-31T08:02:15;101854.16;;;17.16;100.00
62708;BME280;48769;51.624;5.886;2022-10-31T08:04:40;101859.28;;;17.89;100.00
62708;BME280;48769;51.624;5.886;2022-10-31T08:07:06;101846.59;;;18.58;100.00
62708;BME280;48769;51.624;5.886;2022-10-31T08:09:31;101842.88;;;18.99;100.00
62708;BME280;48769;51.624;5.886;2022-10-31T08:11:56;101848.09;;;19.13;100.00
62708;BME280;48769;51.624;5.886;2022-10-31T08:14:22;101850.75;;;19.50;100.00
62708;BME280;48769;51.624;5.886;2022-10-31T08:16:47;101839.72;;;19.67;100.00
62708;BME280;48769;51.624;5.886;2022-10-31T08:19:13;101839.91;;;19.88;100.00
62708;BME280;48769;51.624;5.886;2022-10-31T08:21:38;101830.88;;;20.13;100.00
62708;BME280;48769;51.624;5.886;2022-10-31T08:24:04;101833.22;;;20.64;100.00
62708;BME280;48769;51.624;5.886;2022-10-31T08:26:29;101830.66;;;21.08;100.00
62708;BME280;48769;51.624;5.886;2022-10-31T08:28:54;101833.00;;;20.78;100.00
62708;BME280;48769;51.624;5.886;2022-10-31T08:31:20;101842.03;;;20.77;100.00
62708;BME280;48769;51.624;5.886;2022-10-31T08:33:46;101843.00;;;20.99;99.63
62708;BME280;48769;51.624;5.886;2022-10-31T08:36:11;101832.22;;;21.21;98.95
62708;BME280;48769;51.624;5.886;2022-10-31T08:38:36;101831.38;;;21.21;98.81
62708;BME280;48769;51.624;5.886;2022-10-31T08:41:02;101825.19;;;20.98;98.43
62708;BME280;48769;51.624;5.886;2022-10-31T08:43:27;101821.38;;;20.67;99.80
62708;BME280;48769;51.624;5.886;2022-10-31T08:45:52;101817.84;;;20.20;100.00
62708;BME280;48769;51.624;5.886;2022-10-31T08:48:20;101817.34;;;20.15;100.00
62708;BME280;48769;51.624;5.886;2022-10-31T08:50:45;101815.84;;;20.35;100.00
62708;BME280;48769;51.624;5.886;2022-10-31T08:53:15;101813.25;;;20.33;100.00
62708;BME280;48769;51.624;5.886;2022-10-31T08:55:54;101805.72;;;20.03;100.00
62708;BME280;48769;51.624;5.886;2022-10-31T08:58:28;101810.25;;;19.54;100.00
62708;BME280;48769;51.624;5.886;2022-10-31T09:01:01;101814.97;;;19.14;100.00
62708;BME280;48769;51.624;5.886;2022-10-31T09:03:28;101825.19;;;18.83;100.00
62708;BME280;48769;51.624;5.886;2022-10-31T09:05:59;101821.44;;;18.48;100.00
62708;BME280;48769;51.624;5.886;2022-10-31T09:08:26;101812.09;;;18.28;100.00
62708;BME280;48769;51.624;5.886;2022-10-31T09:10:51;101812.50;;;18.09;100.00
62708;BME280;48769;51.624;5.886;2022-10-31T09:13:20;101807.94;;;17.84;100.00
62708;BME280;48769;51.624;5.886;2022-10-31T09:15:47;101798.97;;;17.85;100.00
62708;BME280;48769;51.624;5.886;2022-10-31T09:18:16;101787.44;;;17.84;100.00
62708;BME280;48769;51.624;5.886;2022-10-31T09:20:43;101777.31;;;17.75;100.00
62708;BME280;48769;51.624;5.886;2022-10-31T09:23:14;101778.53;;;17.57;100.00
62708;BME280;48769;51.624;5.886;2022-10-31T09:25:40;101775.53;;;17.48;100.00
62708;BME280;48769;51.624;5.886;2022-10-31T09:28:08;101769.22;;;17.49;100.00
62708;BME280;48769;51.624;5.886;2022-10-31T09:30:35;101779.13;;;17.47;100.00
62708;BME280;48769;51.624;5.886;2022-10-31T09:33:10;101770.44;;;17.58;100.00
62708;BME280;48769;51.624;5.886;2022-10-31T09:35:36;101773.25;;;17.69;100.00
62708;BME280;48769;51.624;5.886;2022-10-31T09:38:04;101781.22;;;17.84;100.00
62708;BME280;48769;51.624;5.886;2022-10-31T09:40:40;101790.84;;;17.86;100.00
62708;BME280;48769;51.624;5.886;2022-10-31T09:43:32;101787.97;;;17.89;100.00
62708;BME280;48769;51.624;5.886;2022-10-31T09:51:40;101783.44;;;17.77;100.00
62708;BME280;48769;51.624;5.886;2022-10-31T09:54:13;101779.75;;;17.92;100.00
62708;BME280;48769;51.624;5.886;2022-10-31T09:56:39;101771.50;;;17.95;100.00
62708;BME280;48769;51.624;5.886;2022-10-31T09:59:06;101760.50;;;18.00;100.00
62708;BME280;48769;51.624;5.886;2022-10-31T10:01:43;101757.13;;;18.11;100.00
62708;BME280;48769;51.624;5.886;2022-10-31T10:04:19;101766.94;;;18.23;100.00
62708;BME280;48769;51.624;5.886;2022-10-31T10:06:50;101769.31;;;18.28;100.00
62708;BME280;48769;51.624;5.886;2022-10-31T10:09:19;101753.13;;;18.29;100.00
62708;BME280;48769;51.624;5.886;2022-10-31T10:11:57;101750.16;;;18.21;100.00
62708;BME280;48769;51.624;5.886;2022-10-31T10:20:26;101743.75;;;18.11;100.00
62708;BME280;48769;51.624;5.886;2022-10-31T10:25:31;101739.88;;;18.40;100.00
62708;BME280;48769;51.624;5.886;2022-10-31T10:28:13;101741.16;;;18.60;100.00
62708;BME280;48769;51.624;5.886;2022-10-31T10:30:59;101741.69;;;18.78;100.00
62708;BME280;48769;51.624;5.886;2022-10-31T10:33:39;101728.22;;;19.04;100.00
62708;BME280;48769;51.624;5.886;2022-10-31T10:36:14;101721.69;;;19.08;100.00
62708;BME280;48769;51.624;5.886;2022-10-31T10:38:55;101716.78;;;19.02;100.00
62708;BME280;48769;51.624;5.886;2022-10-31T10:41:24;101713.56;;;18.97;100.00
62708;BME280;48769;51.624;5.886;2022-10-31T10:43:50;101705.22;;;19.01;100.00
62708;BME280;48769;51.624;5.886;2022-10-31T10:46:17;101696.09;;;19.04;100.00
62708;BME280;48769;51.624;5.886;2022-10-31T10:49:11;101691.56;;;19.04;100.00
62708;BME280;48769;51.624;5.886;2022-10-31T10:51:38;101688.69;;;19.07;100.00
62708;BME280;48769;51.624;5.886;2022-10-31T10:54:29;101674.66;;;19.04;100.00
62708;BME280;48769;51.624;5.886;2022-10-31T11:00:20;101665.09;;;19.12;100.00
62708;BME280;48769;51.624;5.886;2022-10-31T11:02:46;101659.75;;;19.12;100.00
62708;BME280;48769;51.624;5.886;2022-10-31T11:05:46;101654.16;;;19.15;100.00
62708;BME280;48769;51.624;5.886;2022-10-31T11:08:24;101662.22;;;19.27;100.00
62708;BME280;48769;51.624;5.886;2022-10-31T11:11:07;101663.22;;;19.26;100.00
62708;BME280;48769;51.624;5.886;2022-10-31T11:13:34;101658.53;;;19.41;100.00
62708;BME280;48769;51.624;5.886;2022-10-31T11:16:14;101660.00;;;19.45;100.00
62708;BME280;48769;51.624;5.886;2022-10-31T11:18:51;101654.66;;;19.45;100.00
62708;BME280;48769;51.624;5.886;2022-10-31T11:21:29;101648.91;;;19.49;100.00
62708;BME280;48769;51.624;5.886;2022-10-31T11:24:16;101652.19;;;19.42;100.00
62708;BME280;48769;51.624;5.886;2022-10-31T11:26:44;101649.38;;;19.43;100.00
62708;BME280;48769;51.624;5.886;2022-10-31T11:29:22;101650.41;;;19.53;100.00
62708;BME280;48769;51.624;5.886;2022-10-31T11:31:51;101647.22;;;19.48;100.00
62708;BME280;48769;51.624;5.886;2022-10-31T11:34:26;101640.09;;;19.36;100.00
62708;BME280;48769;51.624;5.886;2022-10-31T11:36:52;101636.56;;;19.35;100.00
62708;BME280;48769;51.624;5.886;2022-10-31T11:39:22;101627.06;;;19.31;100.00
62708;BME280;48769;51.624;5.886;2022-10-31T11:41:50;101621.25;;;19.37;100.00
62708;BME280;48769;51.624;5.886;2022-10-31T11:44:18;101611.63;;;19.35;100.00
62708;BME280;48769;51.624;5.886;2022-10-31T11:46:52;101602.38;;;19.39;100.00
62708;BME280;48769;51.624;5.886;2022-10-31T11:49:29;101602.56;;;19.60;100.00
62708;BME280;48769;51.624;5.886;2022-10-31T11:52:06;101597.25;;;19.94;100.00
62708;BME280;48769;51.624;5.886;2022-10-31T11:54:44;101592.38;;;20.10;100.00
62708;BME280;48769;51.624;5.886;2022-10-31T11:59:56;101582.13;;;20.26;100.00
62708;BME280;48769;51.624;5.886;2022-10-31T12:02:22;101569.69;;;20.25;100.00
62708;BME280;48769;51.624;5.886;2022-10-31T12:05:36;101575.75;;;20.39;100.00
62708;BME280;48769;51.624;5.886;2022-10-31T12:07:57;101569.31;;;20.30;100.00
62708;BME280;48769;51.624;5.886;2022-10-31T12:10:31;101570.44;;;20.16;100.00
62708;BME280;48769;51.624;5.886;2022-10-31T12:13:21;101552.03;;;20.00;100.00
62708;BME280;48769;51.624;5.886;2022-10-31T12:15:58;101547.88;;;19.74;100.00
62708;BME280;48769;51.624;5.886;2022-10-31T12:18:38;101545.31;;;19.83;100.00
62708;BME280;48769;51.624;5.886;2022-10-31T12:24:25;101525.81;;;19.93;100.00
62708;BME280;48769;51.624;5.886;2022-10-31T12:26:42;101515.81;;;19.95;100.00
62708;BME280;48769;51.624;5.886;2022-10-31T12:29:21;101506.69;;;19.97;100.00
62708;BME280;48769;51.624;5.886;2022-10-31T12:39:50;101480.09;;;19.94;100.00
62708;BME280;48769;51.624;5.886;2022-10-31T12:48:08;101458.84;;;20.14;100.00
62708;BME280;48769;51.624;5.886;2022-10-31T12:51:21;101449.72;;;20.16;100.00
62708;BME280;48769;51.624;5.886;2022-10-31T12:58:31;101433.44;;;20.29;100.00
62708;BME280;48769;51.624;5.886;2022-10-31T13:01:07;101427.00;;;20.20;100.00
62708;BME280;48769;51.624;5.886;2022-10-31T13:03:55;101424.13;;;20.12;100.00
62708;BME280;48769;51.624;5.886;2022-10-31T13:06:29;101424.72;;;20.16;100.00
62708;BME280;48769;51.624;5.886;2022-10-31T13:08:59;101425.63;;;19.94;100.00
62708;BME280;48769;51.624;5.886;2022-10-31T13:11:30;101424.28;;;19.88;100.00
62708;BME280;48769;51.624;5.886;2022-10-31T13:16:40;101397.16;;;19.70;100.00
62708;BME280;48769;51.624;5.886;2022-10-31T13:19:31;101389.94;;;19.59;100.00
62708;BME280;48769;51.624;5.886;2022-10-31T13:22:17;101371.69;;;19.42;100.00
62708;BME280;48769;51.624;5.886;2022-10-31T13:27:24;101372.53;;;19.43;100.00
62708;BME280;48769;51.624;5.886;2022-10-31T13:30:15;101370.59;;;19.33;100.00
62708;BME280;48769;51.624;5.886;2022-10-31T13:32:44;101367.69;;;19.36;100.00
62708;BME280;48769;51.624;5.886;2022-10-31T13:35:20;101360.50;;;19.03;100.00
62708;BME280;48769;51.624;5.886;2022-10-31T13:38:00;101360.75;;;19.23;100.00
62708;BME280;48769;51.624;5.886;2022-10-31T13:40:49;101355.63;;;19.20;100.00
62708;BME280;48769;51.624;5.886;2022-10-31T13:48:58;101328.72;;;19.32;100.00
62708;BME280;48769;51.624;5.886;2022-10-31T13:51:28;101323.13;;;19.35;100.00
62708;BME280;48769;51.624;5.886;2022-10-31T13:56:28;101306.16;;;19.46;100.00
62708;BME280;48769;51.624;5.886;2022-10-31T14:01:34;101306.06;;;19.36;100.00
62708;BME280;48769;51.624;5.886;2022-10-31T14:12:38;101287.31;;;19.36;100.00
62708;BME280;48769;51.624;5.886;2022-10-31T14:15:19;101289.63;;;19.41;100.00
62708;BME280;48769;51.624;5.886;2022-10-31T14:18:05;101280.25;;;19.35;100.00
62708;BME280;48769;51.624;5.886;2022-10-31T14:20:41;101285.97;;;19.42;100.00